Time;durP1;ratioP1;P1;durP2;ratioP2;P2;SDS_P1;SDS_P2;PMS_P1;PMS_P2;Temp;Humidity;BMP_temperature;BMP_pressure;BME280_temperature;BME280_humidity;BME280_pressure;Samples;Min_cycle;Max_cycle;Signal;HPM_P1;HPM_P2
2023/06/03 00:01:04;;;;;;;;;;;13.20;91.80;;;;;;5135025;27;19915;-42
2023/06/03 00:03:31;;;;;;;;;;;13.20;91.80;;;;;;5137699;27;19908;-42
2023/06/03 00:05:58;;;;;;;;;;;13.20;91.80;;;;;;5137003;27;20316;-41
2023/06/03 00:08:23;;;;;;;;;;;13.10;91.80;;;;;;5137631;27;20381;-43
2023/06/03 00:10:49;;;;;;;;;;;13.10;91.70;;;;;;5137387;27;20002;-41
2023/06/03 00:13:14;;;;;;;;;;;13.00;91.70;;;;;;5136978;27;19907;-41
2023/06/03 00:15:40;;;;;;;;;;;13.00;91.50;;;;;;5137311;27;19919;-43
2023/06/03 00:18:06;;;;;;;;;;;13.00;91.30;;;;;;5137400;27;19951;-42
2023/06/03 00:20:35;;;;;;;;;;;12.90;91.30;;;;;;5136775;27;19908;-43
2023/06/03 00:23:05;;;;;;;;;;;12.90;91.10;;;;;;5137268;27;19915;-41
2023/06/03 00:25:34;;;;;;;;;;;12.80;91.50;;;;;;5136405;27;20362;-42
2023/06/03 00:28:00;;;;;;;;;;;12.80;91.20;;;;;;5137280;27;19907;-41
2023/06/03 00:30:26;;;;;;;;;;;12.80;91.30;;;;;;5137275;27;19908;-43
2023/06/03 00:32:51;;;;;;;;;;;12.80;91.20;;;;;;5136378;27;20008;-43
2023/06/03 00:35:17;;;;;;;;;;;12.70;91.30;;;;;;5136950;27;19951;-43
2023/06/03 00:37:42;;;;;;;;;;;12.70;91.40;;;;;;5136612;27;19927;-41
2023/06/03 00:40:08;;;;;;;;;;;12.60;91.30;;;;;;5136278;27;19926;-40
2023/06/03 00:42:34;;;;;;;;;;;12.60;91.40;;;;;;5136941;27;19930;-42
2023/06/03 00:44:59;;;;;;;;;;;12.60;91.30;;;;;;5136894;27;19908;-42
2023/06/03 00:47:25;;;;;;;;;;;12.50;91.20;;;;;;5136204;27;20349;-43
2023/06/03 00:49:50;;;;;;;;;;;12.50;91.50;;;;;;5136705;27;19907;-42
2023/06/03 00:52:17;;;;;;;;;;;12.50;91.60;;;;;;5136732;27;20372;-42
2023/06/03 00:54:43;;;;;;;;;;;12.50;91.80;;;;;;5135854;27;20017;-40
2023/06/03 00:57:09;;;;;;;;;;;12.40;91.80;;;;;;5136696;27;19959;-45
2023/06/03 00:59:34;;;;;;;;;;;12.40;91.60;;;;;;5136566;27;19918;-41
2023/06/03 01:02:00;;;;;;;;;;;12.40;91.50;;;;;;5136063;27;19929;-43
2023/06/03 01:04:26;;;;;;;;;;;12.30;91.20;;;;;;5136499;27;19933;-42
2023/06/03 01:07:07;;;;;;;;;;;12.30;91.10;;;;;;5136468;27;19907;-41
2023/06/03 01:09:39;;;;;;;;;;;12.30;91.30;;;;;;5135982;27;19911;-42
2023/06/03 01:12:04;;;;;;;;;;;12.30;91.20;;;;;;5135836;27;19947;-42
2023/06/03 01:14:34;;;;;;;;;;;12.20;91.30;;;;;;5135407;27;19942;-43
2023/06/03 01:17:01;;;;;;;;;;;12.20;91.30;;;;;;5136345;27;19915;-42
2023/06/03 01:19:38;;;;;;;;;;;12.20;91.50;;;;;;5136089;27;19907;-42
2023/06/03 01:22:06;;;;;;;;;;;12.10;91.50;;;;;;5135665;27;19919;-43
2023/06/03 01:24:32;;;;;;;;;;;12.10;91.70;;;;;;5136126;27;19978;-43
2023/06/03 01:26:58;;;;;;;;;;;12.10;91.40;;;;;;5136100;27;19911;-40
2023/06/03 01:29:24;;;;;;;;;;;12.00;91.60;;;;;;5135267;27;19907;-42
2023/06/03 01:31:50;;;;;;;;;;;12.00;91.80;;;;;;5135836;27;20313;-42
2023/06/03 01:34:15;;;;;;;;;;;12.00;91.70;;;;;;5136022;27;19919;-41
2023/06/03 01:36:41;;;;;;;;;;;11.90;91.70;;;;;;5134849;27;20297;-41
2023/06/03 01:39:07;;;;;;;;;;;11.90;91.80;;;;;;5135892;27;19953;-43
2023/06/03 01:41:33;;;;;;;;;;;11.90;91.90;;;;;;5135562;27;19994;-41
2023/06/03 01:43:58;;;;;;;;;;;11.90;92.10;;;;;;5134987;27;19908;-41
2023/06/03 01:46:24;;;;;;;;;;;11.80;92.30;;;;;;5135513;27;20270;-41
2023/06/03 01:48:49;;;;;;;;;;;11.80;92.20;;;;;;5135614;27;19907;-43
2023/06/03 01:51:15;;;;;;;;;;;11.80;92.30;;;;;;5134910;27;19908;-42
2023/06/03 01:53:40;;;;;;;;;;;11.80;92.40;;;;;;5135420;27;19964;-41
2023/06/03 01:56:06;;;;;;;;;;;11.70;92.40;;;;;;5135262;27;20352;-42
2023/06/03 01:58:32;;;;;;;;;;;11.70;92.60;;;;;;5134684;27;19907;-41
2023/06/03 02:00:57;;;;;;;;;;;11.70;92.60;;;;;;5135330;27;19907;-42
2023/06/03 02:03:23;;;;;;;;;;;11.70;92.70;;;;;;5135191;27;19965;-41
2023/06/03 02:05:48;;;;;;;;;;;11.60;92.90;;;;;;5134569;27;20010;-47
2023/06/03 02:08:14;;;;;;;;;;;11.60;92.90;;;;;;5135255;27;19912;-42
2023/06/03 02:10:39;;;;;;;;;;;11.50;92.90;;;;;;5135019;27;20017;-42
2023/06/03 02:13:05;;;;;;;;;;;11.50;92.80;;;;;;5134465;27;19976;-43
2023/06/03 02:15:30;;;;;;;;;;;11.50;93.00;;;;;;5134973;27;19916;-47
2023/06/03 02:17:56;;;;;;;;;;;11.40;93.10;;;;;;5134242;27;19907;-43
2023/06/03 02:20:22;;;;;;;;;;;11.40;93.30;;;;;;5134890;27;19907;-42
2023/06/03 02:22:48;;;;;;;;;;;11.40;93.40;;;;;;5134529;27;19907;-42
2023/06/03 02:25:13;;;;;;;;;;;11.40;93.70;;;;;;5133531;27;20282;-40
2023/06/03 02:27:39;;;;;;;;;;;11.30;93.50;;;;;;5134745;27;19985;-42
2023/06/03 02:30:07;;;;;;;;;;;11.30;93.80;;;;;;5134738;27;19907;-42
2023/06/03 02:32:32;;;;;;;;;;;11.30;93.70;;;;;;5133865;27;19952;-41
2023/06/03 02:34:58;;;;;;;;;;;11.20;94.10;;;;;;5134649;27;19919;-41
2023/06/03 02:37:23;;;;;;;;;;;11.20;94.00;;;;;;5134189;27;20329;-42
2023/06/03 02:39:49;;;;;;;;;;;11.20;93.70;;;;;;5133795;27;19915;-43
2023/06/03 02:42:14;;;;;;;;;;;11.10;94.00;;;;;;5134472;27;20437;-45
2023/06/03 02:44:40;;;;;;;;;;;11.10;94.00;;;;;;5134422;27;20407;-42
2023/06/03 02:47:05;;;;;;;;;;;11.10;94.20;;;;;;5133636;27;19908;-43
2023/06/03 02:49:31;;;;;;;;;;;11.00;94.30;;;;;;5134242;27;20320;-41
2023/06/03 02:51:57;;;;;;;;;;;11.00;94.40;;;;;;5134485;27;19908;-42
2023/06/03 02:54:23;;;;;;;;;;;11.00;94.60;;;;;;5133507;27;19922;-43
2023/06/03 02:56:48;;;;;;;;;;;11.00;94.50;;;;;;5134190;27;19908;-41
2023/06/03 02:59:14;;;;;;;;;;;10.90;94.60;;;;;;5134148;27;20005;-42
2023/06/03 03:01:39;;;;;;;;;;;10.90;94.70;;;;;;5133384;27;19955;-42
2023/06/03 03:04:05;;;;;;;;;;;10.90;94.80;;;;;;5134260;27;20265;-40
2023/06/03 03:06:30;;;;;;;;;;;10.90;94.60;;;;;;5134075;27;19914;-43
2023/06/03 03:08:56;;;;;;;;;;;10.90;94.80;;;;;;5133364;27;19907;-41
2023/06/03 03:11:21;;;;;;;;;;;10.80;94.80;;;;;;5133998;27;19912;-43
2023/06/03 03:13:47;;;;;;;;;;;10.90;95.00;;;;;;5133933;27;20006;-43
2023/06/03 03:16:13;;;;;;;;;;;10.80;95.00;;;;;;5133094;27;19937;-41
2023/06/03 03:18:39;;;;;;;;;;;10.80;94.90;;;;;;5133831;27;19912;-47
2023/06/03 03:21:05;;;;;;;;;;;10.80;95.00;;;;;;5133156;27;19907;-50
2023/06/03 03:23:31;;;;;;;;;;;10.80;95.10;;;;;;5134015;27;20003;-41
2023/06/03 03:25:57;;;;;;;;;;;10.70;95.10;;;;;;5133856;27;19908;-40
2023/06/03 03:28:23;;;;;;;;;;;10.70;95.30;;;;;;5133125;27;20396;-45
2023/06/03 03:30:49;;;;;;;;;;;10.70;95.30;;;;;;5133738;27;19949;-46
2023/06/03 03:33:16;;;;;;;;;;;10.70;95.30;;;;;;5133813;27;19914;-40
2023/06/03 03:35:43;;;;;;;;;;;10.70;95.50;;;;;;5132685;27;19915;-43
2023/06/03 03:38:08;;;;;;;;;;;10.60;95.60;;;;;;5133490;28;19926;-47
2023/06/03 03:40:37;;;;;;;;;;;10.60;95.50;;;;;;5133744;28;19998;-41
2023/06/03 03:43:03;;;;;;;;;;;10.60;95.70;;;;;;5132761;28;20270;-44
2023/06/03 03:45:30;;;;;;;;;;;10.60;95.60;;;;;;5133392;28;19914;-45
2023/06/03 03:47:59;;;;;;;;;;;10.60;95.50;;;;;;5133742;28;19907;-40
2023/06/03 03:50:36;;;;;;;;;;;10.60;95.50;;;;;;5132849;28;19908;-41
2023/06/03 03:53:04;;;;;;;;;;;10.60;95.80;;;;;;5133576;28;19950;-43
2023/06/03 03:55:29;;;;;;;;;;;10.60;95.80;;;;;;5133367;28;19915;-42
2023/06/03 03:57:55;;;;;;;;;;;10.60;96.00;;;;;;5132705;28;20281;-42
2023/06/03 04:00:21;;;;;;;;;;;10.50;96.00;;;;;;5133307;28;19950;-41
2023/06/03 04:02:47;;;;;;;;;;;10.50;96.10;;;;;;5133390;28;19907;-41
2023/06/03 04:05:15;;;;;;;;;;;10.50;96.00;;;;;;5132658;28;19914;-41
2023/06/03 04:07:42;;;;;;;;;;;10.60;96.30;;;;;;5133383;28;19914;-44
2023/06/03 04:10:09;;;;;;;;;;;10.50;96.30;;;;;;5133475;28;19908;-42
2023/06/03 04:12:36;;;;;;;;;;;10.60;96.60;;;;;;5132493;28;19908;-42
2023/06/03 04:15:02;;;;;;;;;;;10.60;96.70;;;;;;5133215;28;20398;-43
2023/06/03 04:17:30;;;;;;;;;;;10.50;96.90;;;;;;5132490;28;19946;-42
2023/06/03 04:19:56;;;;;;;;;;;10.60;96.90;;;;;;5133496;28;19908;-44
2023/06/03 04:22:25;;;;;;;;;;;10.60;96.90;;;;;;5133298;28;19974;-45
2023/06/03 04:25:01;;;;;;;;;;;10.60;97.00;;;;;;5132449;28;19908;-44
2023/06/03 04:27:26;;;;;;;;;;;10.60;97.00;;;;;;5133141;28;19907;-42
2023/06/03 04:29:52;;;;;;;;;;;10.60;96.90;;;;;;5133216;28;20382;-43
2023/06/03 04:32:17;;;;;;;;;;;10.60;96.90;;;;;;5132340;28;19957;-42
2023/06/03 04:34:53;;;;;;;;;;;10.60;97.00;;;;;;5133103;28;19920;-43
2023/06/03 04:37:19;;;;;;;;;;;10.60;96.90;;;;;;5132836;28;19926;-44
2023/06/03 04:39:45;;;;;;;;;;;10.60;97.10;;;;;;5132352;28;19908;-41
2023/06/03 04:42:12;;;;;;;;;;;10.60;97.30;;;;;;5114584;28;19953;-47
2023/06/03 04:44:38;;;;;;;;;;;10.60;97.40;;;;;;5133143;28;19975;-44
2023/06/03 04:47:04;;;;;;;;;;;10.70;97.60;;;;;;5133648;27;19911;-43
2023/06/03 04:49:32;;;;;;;;;;;10.60;97.20;;;;;;5136708;27;20379;-43
2023/06/03 04:51:57;;;;;;;;;;;10.70;97.40;;;;;;5136449;27;19908;-44
2023/06/03 04:54:23;;;;;;;;;;;10.70;97.30;;;;;;5135772;27;20009;-43
2023/06/03 04:56:49;;;;;;;;;;;10.70;97.50;;;;;;5136574;27;20005;-43
2023/06/03 04:59:15;;;;;;;;;;;10.70;97.40;;;;;;5136575;27;19914;-46
2023/06/03 05:01:40;;;;;;;;;;;10.70;97.60;;;;;;5135638;27;20365;-44
2023/06/03 05:04:11;;;;;;;;;;;10.70;97.80;;;;;;5136814;27;19998;-43
2023/06/03 05:06:38;;;;;;;;;;;10.80;97.90;;;;;;5135484;27;19911;-46
2023/06/03 05:09:04;;;;;;;;;;;10.80;98.00;;;;;;5136445;27;19957;-42
2023/06/03 05:11:29;;;;;;;;;;;10.80;98.20;;;;;;5136329;27;20304;-43
2023/06/03 05:13:55;;;;;;;;;;;10.90;98.50;;;;;;5135615;27;20384;-43
2023/06/03 05:16:20;;;;;;;;;;;10.90;98.40;;;;;;5136145;27;19915;-46
2023/06/03 05:18:46;;;;;;;;;;;10.90;98.40;;;;;;5136141;27;20295;-42
2023/06/03 05:21:11;;;;;;;;;;;10.90;98.70;;;;;;5135389;27;19908;-42
2023/06/03 05:23:37;;;;;;;;;;;11.00;99.10;;;;;;5135998;27;19907;-42
2023/06/03 05:26:02;;;;;;;;;;;11.00;98.80;;;;;;5136284;27;19908;-41
2023/06/03 05:28:28;;;;;;;;;;;11.00;99.00;;;;;;5135246;27;20265;-42
2023/06/03 05:30:53;;;;;;;;;;;11.10;99.10;;;;;;5135951;27;19913;-44
2023/06/03 05:33:26;;;;;;;;;;;11.10;99.10;;;;;;5136003;27;19914;-41
2023/06/03 05:35:51;;;;;;;;;;;11.20;99.10;;;;;;5134993;27;19916;-42
2023/06/03 05:38:17;;;;;;;;;;;11.20;99.10;;;;;;5135577;27;20366;-42
2023/06/03 05:40:43;;;;;;;;;;;11.30;99.30;;;;;;5135551;27;19907;-42
2023/06/03 05:43:09;;;;;;;;;;;11.30;99.50;;;;;;5135026;27;19914;-44
2023/06/03 05:45:34;;;;;;;;;;;11.40;99.40;;;;;;5135597;27;19908;-44
2023/06/03 05:48:00;;;;;;;;;;;11.40;99.30;;;;;;5135621;27;19908;-43
2023/06/03 05:50:26;;;;;;;;;;;11.50;99.50;;;;;;5134663;27;19907;-43
2023/06/03 05:52:51;;;;;;;;;;;11.50;99.90;;;;;;5135637;27;19908;-42
2023/06/03 05:55:17;;;;;;;;;;;11.60;99.90;;;;;;5135457;27;20362;-44
2023/06/03 05:57:42;;;;;;;;;;;11.60;99.70;;;;;;5134535;27;19907;-43
2023/06/03 06:00:09;;;;;;;;;;;11.70;99.60;;;;;;5135499;27;19953;-42
2023/06/03 06:02:34;;;;;;;;;;;11.80;99.90;;;;;;5135303;27;19911;-44
2023/06/03 06:05:00;;;;;;;;;;;11.80;99.90;;;;;;5134447;27;19915;-42
2023/06/03 06:07:25;;;;;;;;;;;11.90;99.90;;;;;;5135167;27;19907;-41
2023/06/03 06:09:51;;;;;;;;;;;12.00;99.70;;;;;;5134791;27;19950;-42
2023/06/03 06:12:16;;;;;;;;;;;12.10;99.60;;;;;;5134999;27;20372;-42
2023/06/03 06:14:42;;;;;;;;;;;12.20;99.00;;;;;;5134957;27;20002;-41
2023/06/03 06:17:07;;;;;;;;;;;12.30;98.80;;;;;;5134277;27;19965;-43
2023/06/03 06:19:36;;;;;;;;;;;12.30;99.20;;;;;;5134913;27;19915;-41
2023/06/03 06:22:02;;;;;;;;;;;12.40;99.80;;;;;;5135010;27;20046;-42
2023/06/03 06:24:27;;;;;;;;;;;12.50;99.70;;;;;;5134066;27;19965;-43
2023/06/03 06:26:53;;;;;;;;;;;12.50;99.60;;;;;;5134947;27;20369;-44
2023/06/03 06:29:18;;;;;;;;;;;12.60;99.30;;;;;;5134838;27;19915;-45
2023/06/03 06:31:44;;;;;;;;;;;12.70;99.90;;;;;;5133940;27;19952;-43
2023/06/03 06:34:10;;;;;;;;;;;12.80;99.60;;;;;;5134671;27;20156;-42
2023/06/03 06:36:41;;;;;;;;;;;12.90;99.60;;;;;;5134360;27;20294;-42
2023/06/03 06:39:18;;;;;;;;;;;12.90;99.50;;;;;;5133900;27;19929;-42
2023/06/03 06:41:43;;;;;;;;;;;13.10;99.10;;;;;;5134601;27;19911;-43
2023/06/03 06:44:09;;;;;;;;;;;13.10;99.10;;;;;;5134714;27;20318;-43
2023/06/03 06:46:36;;;;;;;;;;;13.20;98.80;;;;;;5133676;27;19907;-43
2023/06/03 06:49:02;;;;;;;;;;;13.30;99.00;;;;;;5134544;27;19908;-42
2023/06/03 06:51:28;;;;;;;;;;;13.40;99.10;;;;;;5134378;27;20285;-43
2023/06/03 06:53:54;;;;;;;;;;;13.50;98.50;;;;;;5133718;27;19907;-44
2023/06/03 06:56:21;;;;;;;;;;;13.60;97.90;;;;;;5134315;27;19921;-43
2023/06/03 06:58:46;;;;;;;;;;;13.60;97.30;;;;;;5134267;27;19960;-44
2023/06/03 07:01:12;;;;;;;;;;;13.70;97.50;;;;;;5133423;27;19915;-44
2023/06/03 07:03:37;;;;;;;;;;;13.80;97.40;;;;;;5134141;27;20432;-43
2023/06/03 07:06:03;;;;;;;;;;;13.90;97.00;;;;;;5134437;27;20002;-44
2023/06/03 07:08:28;;;;;;;;;;;13.90;97.10;;;;;;5133284;27;20370;-46
2023/06/03 07:10:59;;;;;;;;;;;14.00;96.20;;;;;;5133721;27;20370;-43
2023/06/03 07:13:25;;;;;;;;;;;14.00;95.40;;;;;;5133194;27;19915;-43
2023/06/03 07:15:50;;;;;;;;;;;14.10;94.90;;;;;;5133839;27;19916;-43
2023/06/03 07:18:16;;;;;;;;;;;14.10;95.50;;;;;;5133993;27;19907;-44
2023/06/03 07:20:42;;;;;;;;;;;14.10;95.40;;;;;;5124616;27;19998;-43
2023/06/03 07:23:12;;;;;;;;;;;14.20;96.00;;;;;;5133940;27;19907;-43
2023/06/03 07:25:39;;;;;;;;;;;14.20;95.80;;;;;;5133802;27;19911;-45
2023/06/03 07:28:08;;;;;;;;;;;14.30;95.30;;;;;;5132987;27;20483;-42
2023/06/03 07:30:35;;;;;;;;;;;14.30;94.70;;;;;;5133659;27;19956;-47
2023/06/03 07:33:01;;;;;;;;;;;14.30;94.10;;;;;;5133878;27;19908;-46
2023/06/03 07:35:27;;;;;;;;;;;14.30;95.00;;;;;;5132857;27;19937;-45
2023/06/03 07:37:52;;;;;;;;;;;14.30;95.40;;;;;;5133573;28;20421;-46
2023/06/03 07:40:18;;;;;;;;;;;14.20;94.90;;;;;;5133867;28;19907;-43
2023/06/03 07:42:44;;;;;;;;;;;14.20;95.10;;;;;;5132885;28;19990;-47
2023/06/03 07:45:13;;;;;;;;;;;14.30;94.90;;;;;;5133653;28;19915;-44
2023/06/03 07:47:39;;;;;;;;;;;14.30;95.20;;;;;;5133519;28;19994;-44
2023/06/03 07:50:16;;;;;;;;;;;14.50;94.60;;;;;;5132767;28;20357;-45
2023/06/03 07:52:41;;;;;;;;;;;14.70;95.50;;;;;;5133603;28;20014;-41
2023/06/03 07:55:07;;;;;;;;;;;14.90;95.20;;;;;;5133412;28;20006;-42
2023/06/03 07:57:38;;;;;;;;;;;15.10;93.90;;;;;;5132798;28;20369;-46
2023/06/03 08:00:04;;;;;;;;;;;15.40;93.50;;;;;;5133552;28;20297;-45
2023/06/03 08:02:30;;;;;;;;;;;15.70;93.00;;;;;;5132591;28;19999;-45
2023/06/03 08:05:00;;;;;;;;;;;15.80;92.80;;;;;;5133895;28;19950;-45
2023/06/03 08:07:27;;;;;;;;;;;16.00;91.90;;;;;;5133369;28;19911;-46
2023/06/03 08:09:52;;;;;;;;;;;16.20;91.50;;;;;;5132737;28;20317;-49
2023/06/03 08:12:19;;;;;;;;;;;16.30;91.10;;;;;;5133464;28;19907;-47
2023/06/03 08:14:44;;;;;;;;;;;16.50;90.70;;;;;;5133278;28;19916;-44
2023/06/03 08:17:11;;;;;;;;;;;16.70;89.80;;;;;;5132688;28;19907;-43
2023/06/03 08:19:37;;;;;;;;;;;16.90;89.90;;;;;;5133302;28;19912;-45
2023/06/03 08:22:06;;;;;;;;;;;17.10;89.40;;;;;;5134682;27;19907;-47
2023/06/03 08:24:32;;;;;;;;;;;17.20;90.10;;;;;;5136435;27;19914;-44
2023/06/03 08:26:57;;;;;;;;;;;17.30;87.50;;;;;;5137315;27;19908;-46
2023/06/03 08:29:23;;;;;;;;;;;17.50;87.60;;;;;;5137237;27;19913;-47
2023/06/03 08:31:48;;;;;;;;;;;17.60;86.90;;;;;;5136632;27;19955;-46
2023/06/03 08:34:14;;;;;;;;;;;17.80;85.30;;;;;;5137095;27;19911;-48
2023/06/03 08:36:39;;;;;;;;;;;17.90;83.90;;;;;;5136805;27;19927;-46
2023/06/03 08:39:06;;;;;;;;;;;18.00;84.30;;;;;;5136268;27;19907;-46
2023/06/03 08:41:38;;;;;;;;;;;18.20;83.10;;;;;;5136861;27;19914;-45
2023/06/03 08:44:09;;;;;;;;;;;18.30;80.30;;;;;;5136882;27;20357;-48
2023/06/03 08:46:41;;;;;;;;;;;18.30;80.50;;;;;;5136116;27;19912;-47
2023/06/03 08:49:11;;;;;;;;;;;18.50;80.20;;;;;;5137004;27;19911;-46
2023/06/03 08:51:37;;;;;;;;;;;18.60;79.20;;;;;;5136406;27;20430;-43
2023/06/03 08:54:08;;;;;;;;;;;18.70;80.80;;;;;;5136725;27;19957;-51
2023/06/03 08:56:37;;;;;;;;;;;18.80;79.30;;;;;;5136817;27;19919;-45
2023/06/03 08:59:03;;;;;;;;;;;19.00;79.00;;;;;;5135857;27;19911;-48
2023/06/03 09:01:35;;;;;;;;;;;19.10;77.50;;;;;;5136572;27;20388;-47
2023/06/03 09:04:02;;;;;;;;;;;19.20;78.20;;;;;;5136575;27;19907;-47
2023/06/03 09:06:27;;;;;;;;;;;19.20;76.60;;;;;;5135621;27;19908;-43
2023/06/03 09:08:53;;;;;;;;;;;19.20;74.60;;;;;;5136563;27;19930;-43
2023/06/03 09:11:18;;;;;;;;;;;19.30;75.90;;;;;;5136430;27;19908;-45
2023/06/03 09:13:44;;;;;;;;;;;19.40;76.50;;;;;;5135527;27;19914;-42
2023/06/03 09:16:10;;;;;;;;;;;19.50;74.20;;;;;;5136363;27;19916;-44
2023/06/03 09:18:36;;;;;;;;;;;19.50;75.60;;;;;;5136011;27;19907;-43
2023/06/03 09:21:02;;;;;;;;;;;19.50;73.10;;;;;;5135488;27;19960;-43
2023/06/03 09:23:28;;;;;;;;;;;19.60;71.70;;;;;;5136070;27;20290;-46
2023/06/03 09:25:53;;;;;;;;;;;19.50;73.00;;;;;;5136150;27;19943;-45
2023/06/03 09:28:19;;;;;;;;;;;19.40;72.90;;;;;;5135290;27;19907;-44
2023/06/03 09:30:45;;;;;;;;;;;19.20;71.90;;;;;;5135954;27;19911;-45
2023/06/03 09:33:10;;;;;;;;;;;19.00;72.10;;;;;;5135508;27;19907;-45
2023/06/03 09:35:36;;;;;;;;;;;18.80;73.90;;;;;;5134970;27;19915;-43
2023/06/03 09:38:04;;;;;;;;;;;18.60;73.80;;;;;;5135703;27;20003;-42
2023/06/03 09:40:31;;;;;;;;;;;18.40;71.90;;;;;;5135821;27;19907;-44
2023/06/03 09:42:57;;;;;;;;;;;18.20;74.10;;;;;;5135306;27;19972;-47
2023/06/03 09:45:30;;;;;;;;;;;18.10;74.90;;;;;;5135697;27;19911;-43
2023/06/03 09:47:59;;;;;;;;;;;18.10;75.50;;;;;;5134846;27;19949;-44
2023/06/03 09:50:28;;;;;;;;;;;18.20;74.10;;;;;;5135552;27;19943;-44
2023/06/03 09:52:54;;;;;;;;;;;18.40;73.80;;;;;;5135587;27;19915;-42
2023/06/03 09:55:22;;;;;;;;;;;18.50;73.30;;;;;;5134693;27;19919;-43
2023/06/03 09:58:20;;;;;;;;;;;18.60;71.00;;;;;;5135498;27;19907;-44
2023/06/03 10:00:49;;;;;;;;;;;18.60;73.80;;;;;;5073326;27;20357;-42
2023/06/03 10:03:15;;;;;;;;;;;18.70;71.40;;;;;;5134585;27;20382;-45
2023/06/03 10:05:41;;;;;;;;;;;18.80;72.60;;;;;;5135359;27;19911;-43
2023/06/03 10:08:07;;;;;;;;;;;19.00;72.20;;;;;;5135330;27;20323;-42
2023/06/03 10:10:35;;;;;;;;;;;19.10;71.40;;;;;;5134475;27;20002;-44
2023/06/03 10:13:20;;;;;;;;;;;19.30;70.10;;;;;;5135236;27;19981;-44
2023/06/03 10:15:45;;;;;;;;;;;19.40;68.40;;;;;;5135074;27;20226;-41
2023/06/03 10:18:11;;;;;;;;;;;19.60;68.80;;;;;;5134384;27;19915;-41
2023/06/03 10:20:37;;;;;;;;;;;19.70;71.70;;;;;;5134938;27;19911;-46
2023/06/03 10:23:03;;;;;;;;;;;19.80;69.50;;;;;;5134633;27;19907;-46
2023/06/03 10:25:33;;;;;;;;;;;19.90;68.80;;;;;;5134648;27;19907;-41
2023/06/03 10:28:02;;;;;;;;;;;20.00;68.50;;;;;;5135025;27;19930;-42
2023/06/03 10:30:29;;;;;;;;;;;20.00;67.70;;;;;;5134097;27;19951;-44
2023/06/03 10:32:57;;;;;;;;;;;19.90;67.00;;;;;;5134813;27;19911;-43
2023/06/03 10:35:22;;;;;;;;;;;20.00;65.10;;;;;;5134610;27;20010;-48
2023/06/03 10:37:48;;;;;;;;;;;20.00;65.70;;;;;;5133537;27;19999;-42
2023/06/03 10:40:14;;;;;;;;;;;20.10;68.30;;;;;;5134561;27;19946;-44
2023/06/03 10:42:40;;;;;;;;;;;20.20;66.40;;;;;;5134598;27;19907;-43
2023/06/03 10:45:06;;;;;;;;;;;20.30;67.30;;;;;;5133132;27;19907;-43
2023/06/03 10:47:32;;;;;;;;;;;20.40;65.70;;;;;;5134480;27;19915;-43
2023/06/03 10:50:10;;;;;;;;;;;20.50;67.20;;;;;;5134533;27;19966;-44
2023/06/03 10:52:49;;;;;;;;;;;20.40;65.40;;;;;;5133627;27;19912;-44
2023/06/03 10:55:14;;;;;;;;;;;20.50;67.20;;;;;;5134383;27;19951;-41
2023/06/03 10:57:45;;;;;;;;;;;20.60;65.80;;;;;;5134331;27;19961;-44
2023/06/03 11:00:11;;;;;;;;;;;20.70;65.30;;;;;;5133526;27;19952;-48
2023/06/03 11:02:55;;;;;;;;;;;20.70;65.70;;;;;;5134193;27;19907;-45
2023/06/03 11:05:24;;;;;;;;;;;20.80;65.40;;;;;;5133398;27;19915;-44
2023/06/03 11:07:50;;;;;;;;;;;20.90;64.00;;;;;;5134179;27;19950;-43
2023/06/03 11:10:36;;;;;;;;;;;21.00;64.00;;;;;;5134219;27;19947;-43
2023/06/03 11:13:02;;;;;;;;;;;21.10;63.80;;;;;;5133250;27;19907;-46
2023/06/03 11:15:46;;;;;;;;;;;21.10;64.00;;;;;;5133855;27;19921;-42
2023/06/03 11:18:15;;;;;;;;;;;21.20;64.10;;;;;;5134060;27;20282;-44
2023/06/03 11:20:40;;;;;;;;;;;21.20;63.00;;;;;;5133111;27;20313;-49
2023/06/03 11:23:06;;;;;;;;;;;21.20;62.90;;;;;;5133996;27;19922;-44
2023/06/03 11:25:31;;;;;;;;;;;21.30;63.90;;;;;;5133838;27;19908;-43
2023/06/03 11:28:35;;;;;;;;;;;21.20;61.20;;;;;;5133039;27;19960;-43
2023/06/03 11:31:01;;;;;;;;;;;21.20;60.20;;;;;;5030321;28;19916;-43
2023/06/03 11:33:27;;;;;;;;;;;21.20;60.00;;;;;;5106392;27;20410;-43
2023/06/03 11:35:52;;;;;;;;;;;21.20;60.90;;;;;;5133698;27;19919;-43
2023/06/03 11:38:37;;;;;;;;;;;21.20;60.00;;;;;;5133489;27;19919;-43
2023/06/03 11:41:03;;;;;;;;;;;21.10;58.20;;;;;;5132811;27;20369;-45
2023/06/03 11:43:29;;;;;;;;;;;21.30;63.40;;;;;;5133653;28;19950;-44
2023/06/03 11:46:03;;;;;;;;;;;21.30;60.50;;;;;;5133809;28;19911;-44
2023/06/03 11:48:36;;;;;;;;;;;21.30;61.40;;;;;;5132864;28;19994;-45
2023/06/03 11:51:01;;;;;;;;;;;21.50;61.30;;;;;;5133698;28;19912;-44
2023/06/03 11:53:30;;;;;;;;;;;21.60;60.70;;;;;;5133516;28;19908;-43
2023/06/03 11:56:09;;;;;;;;;;;21.70;63.40;;;;;;5134001;27;19915;-44
2023/06/03 11:58:36;;;;;;;;;;;21.80;60.20;;;;;;5137739;27;19918;-43
2023/06/03 12:01:16;;;;;;;;;;;21.90;60.70;;;;;;5137746;27;20318;-43
2023/06/03 12:03:55;;;;;;;;;;;22.00;61.50;;;;;;5136979;27;19911;-43
2023/06/03 12:06:21;;;;;;;;;;;22.10;60.20;;;;;;5137701;27;20422;-45
2023/06/03 12:08:47;;;;;;;;;;;22.10;58.20;;;;;;5136872;27;19911;-47
2023/06/03 12:11:25;;;;;;;;;;;22.10;59.70;;;;;;5137692;27;19908;-46
2023/06/03 12:13:51;;;;;;;;;;;22.10;59.80;;;;;;5137669;27;19911;-45
2023/06/03 12:16:25;;;;;;;;;;;22.10;57.80;;;;;;5136626;27;20255;-43
2023/06/03 12:18:50;;;;;;;;;;;22.20;58.50;;;;;;5137538;27;19997;-44
2023/06/03 12:21:19;;;;;;;;;;;22.20;58.40;;;;;;5137437;27;19950;-42
2023/06/03 12:23:45;;;;;;;;;;;22.20;59.30;;;;;;5136548;27;20368;-44
2023/06/03 12:26:10;;;;;;;;;;;22.20;58.60;;;;;;5137274;27;19907;-43
2023/06/03 12:28:36;;;;;;;;;;;22.30;58.40;;;;;;5137143;27;20040;-44
2023/06/03 12:31:14;;;;;;;;;;;22.50;58.60;;;;;;5136513;27;19966;-43
2023/06/03 12:33:44;;;;;;;;;;;22.60;58.30;;;;;;5136994;27;19929;-44
2023/06/03 12:36:09;;;;;;;;;;;22.80;57.20;;;;;;5137089;27;19915;-43
2023/06/03 12:38:54;;;;;;;;;;;23.00;56.80;;;;;;5135979;27;20433;-44
2023/06/03 12:41:19;;;;;;;;;;;23.20;57.40;;;;;;5136924;27;19930;-43
2023/06/03 12:43:45;;;;;;;;;;;23.40;57.60;;;;;;5136068;27;20262;-45
2023/06/03 12:46:17;;;;;;;;;;;23.60;55.60;;;;;;5136956;27;19907;-44
2023/06/03 12:48:44;;;;;;;;;;;23.70;56.20;;;;;;5136711;27;19907;-47
2023/06/03 12:51:29;;;;;;;;;;;23.90;55.30;;;;;;5135993;27;19979;-44
2023/06/03 12:53:57;;;;;;;;;;;24.20;55.40;;;;;;5136821;27;19908;-46
2023/06/03 12:56:23;;;;;;;;;;;24.50;55.10;;;;;;5136555;27;20004;-43
2023/06/03 12:58:53;;;;;;;;;;;24.70;54.90;;;;;;5135908;27;19977;-46
2023/06/03 13:01:19;;;;;;;;;;;24.80;53.10;;;;;;5136708;27;19908;-46
2023/06/03 13:03:44;;;;;;;;;;;25.10;53.80;;;;;;5136488;27;20192;-45
2023/06/03 13:06:10;;;;;;;;;;;25.20;53.30;;;;;;5135839;27;20038;-46
2023/06/03 13:08:35;;;;;;;;;;;25.40;53.10;;;;;;5135562;27;19976;-45
2023/06/03 13:11:01;;;;;;;;;;;25.60;53.30;;;;;;5136456;27;20262;-46
2023/06/03 13:13:30;;;;;;;;;;;25.70;54.80;;;;;;5135529;27;19911;-46
2023/06/03 13:15:57;;;;;;;;;;;25.80;53.10;;;;;;5136277;27;19919;-45
2023/06/03 13:18:23;;;;;;;;;;;25.80;52.90;;;;;;5136091;27;19907;-45
2023/06/03 13:20:49;;;;;;;;;;;26.00;52.80;;;;;;5135546;27;19930;-46
2023/06/03 13:23:15;;;;;;;;;;;26.10;52.60;;;;;;5136246;27;20020;-44
2023/06/03 13:25:40;;;;;;;;;;;26.30;51.80;;;;;;5136024;27;19942;-44
2023/06/03 13:28:06;;;;;;;;;;;26.50;53.40;;;;;;5135350;27;19960;-46
2023/06/03 13:30:32;;;;;;;;;;;26.50;51.20;;;;;;5135992;27;20412;-45
2023/06/03 13:32:57;;;;;;;;;;;26.60;52.60;;;;;;5135338;27;19911;-45
2023/06/03 13:35:23;;;;;;;;;;;26.80;51.00;;;;;;5135729;27;19968;-46
2023/06/03 13:37:48;;;;;;;;;;;26.90;51.20;;;;;;5135630;27;19973;-45
2023/06/03 13:40:14;;;;;;;;;;;26.90;50.00;;;;;;5135076;27;19907;-43
2023/06/03 13:42:39;;;;;;;;;;;26.90;49.10;;;;;;5135610;27;19908;-43
2023/06/03 13:45:06;;;;;;;;;;;27.00;50.90;;;;;;5135802;27;20378;-44
2023/06/03 13:47:32;;;;;;;;;;;27.10;51.80;;;;;;5134837;27;19907;-43
2023/06/03 13:49:57;;;;;;;;;;;27.20;50.20;;;;;;5135755;27;19907;-44
2023/06/03 13:52:23;;;;;;;;;;;27.20;50.00;;;;;;5135653;27;19914;-46
2023/06/03 13:54:49;;;;;;;;;;;27.30;49.30;;;;;;5134829;27;20014;-46
2023/06/03 13:57:14;;;;;;;;;;;27.30;47.70;;;;;;5135605;27;20453;-43
2023/06/03 13:59:40;;;;;;;;;;;27.40;49.30;;;;;;5135506;27;19919;-44
2023/06/03 14:02:07;;;;;;;;;;;27.50;48.70;;;;;;5134780;27;19915;-46
2023/06/03 14:04:34;;;;;;;;;;;27.60;48.40;;;;;;5135347;27;19907;-45
2023/06/03 14:07:00;;;;;;;;;;;27.70;47.80;;;;;;5135407;27;19914;-44
2023/06/03 14:09:25;;;;;;;;;;;27.70;48.70;;;;;;5134512;27;19908;-45
2023/06/03 14:11:51;;;;;;;;;;;27.80;48.90;;;;;;5135244;27;19907;-44
2023/06/03 14:14:17;;;;;;;;;;;28.00;48.80;;;;;;5135230;27;19929;-43
2023/06/03 14:16:43;;;;;;;;;;;28.10;51.00;;;;;;5134163;27;19954;-43